McGrath, Alaska
Current Conditions -  °F | °C
As of 4:53 AM on Wednesday 28 Jan 2015 (Local Time) from PAMC Reporting Station
Clear Clear  
Wind Chill: -33°   Ceiling: Unl
Heat Index: -33°   Visibility: 10mi
Dew Point: -37°   Wind: 3mph
Humidity: 73%   Direction: 300°WNW
Pressure: 30.28"   Gusts: NA
Location:  62.96°N, 155.6°W
Report Text: PAMC 281353Z 30003KT 10SM CLR M33/M37 A3028 RMK AO2 SLP271 T13331367
Loading
Personal Weather Stations






























Interactive Weather Map New forecast layout! Learn more

10-Day Weather Forecast

Advertisements
Track Severe Weather on mobile